Time;durP1;ratioP1;P1;durP2;ratioP2;P2;SDS_P1;SDS_P2;PMS_P1;PMS_P2;Temp;Humidity;BMP_temperature;BMP_pressure;BME280_temperature;BME280_humidity;BME280_pressure;Samples;Min_cycle;Max_cycle;Signal;HPM_P1;HPM_P2
2022/10/31 00:01:52;;;;;;;5.20;2.47;;;;;;;10.37;100.00;96345.03;5027533;28;24977;-70
2022/10/31 00:04:20;;;;;;;5.43;2.90;;;;;;;10.34;100.00;96343.44;5030447;28;24428;-71
2022/10/31 00:06:47;;;;;;;5.32;2.67;;;;;;;10.37;100.00;96345.84;5020157;28;24432;-71
2022/10/31 00:09:13;;;;;;;4.80;2.55;;;;;;;10.35;100.00;96346.88;5024411;28;24435;-70
2022/10/31 00:11:40;;;;;;;7.20;2.45;;;;;;;10.32;100.00;96344.44;5030665;28;24424;-70
2022/10/31 00:14:06;;;;;;;5.57;2.57;;;;;;;10.35;100.00;96342.53;5025219;28;24428;-71
2022/10/31 00:16:33;;;;;;;6.60;2.53;;;;;;;10.33;100.00;96343.50;5027073;28;24439;-71
2022/10/31 00:19:02;;;;;;;8.90;2.30;;;;;;;10.29;100.00;96342.00;5024236;28;24458;-71
2022/10/31 00:21:32;;;;;;;6.78;2.45;;;;;;;10.26;100.00;96337.81;5023221;28;25000;-71
2022/10/31 00:23:59;;;;;;;5.65;2.45;;;;;;;10.23;100.00;96345.72;5022374;28;24432;-70
2022/10/31 00:26:27;;;;;;;5.32;2.30;;;;;;;10.21;100.00;96349.31;5027653;28;24501;-70
2022/10/31 00:28:53;;;;;;;5.40;2.30;;;;;;;10.08;100.00;96344.75;5025794;28;24428;-70
2022/10/31 00:31:20;;;;;;;5.40;2.47;;;;;;;9.97;100.00;96352.22;5021739;28;25004;-71
2022/10/31 00:33:47;;;;;;;4.07;2.08;;;;;;;9.94;100.00;96347.25;5022682;28;24428;-70
2022/10/31 00:36:16;;;;;;;8.17;2.53;;;;;;;9.85;100.00;96348.53;5027033;28;24525;-71
2022/10/31 00:38:45;;;;;;;5.35;2.65;;;;;;;9.79;100.00;96346.25;5026082;28;24822;-69
2022/10/31 00:41:12;;;;;;;8.85;2.85;;;;;;;9.60;100.00;96346.34;5028636;28;20852;-70
2022/10/31 00:43:38;;;;;;;6.63;2.95;;;;;;;9.58;100.00;96348.16;5026141;28;24432;-71
2022/10/31 00:46:05;;;;;;;4.63;2.83;;;;;;;9.50;100.00;96346.88;5027738;28;24439;-70
2022/10/31 00:48:32;;;;;;;7.35;2.95;;;;;;;9.45;100.00;96337.59;5026208;28;24435;-70
2022/10/31 00:50:58;;;;;;;8.73;3.10;;;;;;;9.45;100.00;96337.59;5021911;28;24432;-70
2022/10/31 00:53:25;;;;;;;8.98;3.08;;;;;;;9.34;100.00;96336.44;5026111;28;24436;-70
2022/10/31 00:55:53;;;;;;;6.40;2.45;;;;;;;9.38;100.00;96337.94;5024028;28;24436;-70
2022/10/31 00:58:20;;;;;;;5.50;2.42;;;;;;;9.51;100.00;96341.63;5026407;28;24463;-70
2022/10/31 01:00:54;;;;;;;5.38;2.53;;;;;;;9.49;100.00;96340.84;5027657;28;24439;-70
2022/10/31 01:03:21;;;;;;;5.30;2.45;;;;;;;9.42;100.00;96334.31;5019846;28;20769;-70
2022/10/31 01:05:56;;;;;;;6.93;2.95;;;;;;;9.47;100.00;96331.50;5027249;28;21139;-69
2022/10/31 01:08:22;;;;;;;5.05;2.80;;;;;;;9.48;100.00;96336.59;5019674;28;20657;-70
2022/10/31 01:11:00;;;;;;;5.03;2.75;;;;;;;9.32;100.00;96340.84;5028336;28;24439;-70
2022/10/31 01:13:27;;;;;;;5.75;3.08;;;;;;;9.31;100.00;96334.84;5020256;28;24436;-70
2022/10/31 01:15:55;;;;;;;5.53;3.08;;;;;;;9.33;100.00;96333.00;5027604;28;24428;-70
2022/10/31 01:18:22;;;;;;;5.07;2.80;;;;;;;9.43;100.00;96333.41;5019655;28;20883;-70
2022/10/31 01:20:48;;;;;;;8.10;3.17;;;;;;;9.43;100.00;96330.81;5024345;28;24439;-70
2022/10/31 01:23:14;;;;;;;6.03;3.00;;;;;;;9.35;100.00;96327.78;5026832;28;24432;-70
2022/10/31 01:25:42;;;;;;;11.70;3.25;;;;;;;9.33;100.00;96329.59;5027242;28;24428;-70
2022/10/31 01:28:10;;;;;;;4.40;3.00;;;;;;;9.36;100.00;96330.28;5027611;28;24436;-70
2022/10/31 01:30:36;;;;;;;4.35;2.72;;;;;;;9.38;100.00;96332.78;5028013;28;24806;-70
2022/10/31 01:33:03;;;;;;;5.20;2.83;;;;;;;9.38;100.00;96327.59;5028028;28;24436;-70
2022/10/31 01:35:29;;;;;;;7.43;3.10;;;;;;;9.38;100.00;96331.06;5018713;28;24435;-70
2022/10/31 01:37:56;;;;;;;7.23;2.73;;;;;;;9.32;100.00;96328.75;5029020;28;25007;-70
2022/10/31 01:40:22;;;;;;;4.78;3.13;;;;;;;9.39;100.00;96330.13;5026652;28;24448;-70
2022/10/31 01:42:49;;;;;;;5.50;3.30;;;;;;;9.39;100.00;96324.97;5029448;28;20773;-70
2022/10/31 01:45:18;;;;;;;5.55;3.28;;;;;;;9.23;100.00;96324.03;5025941;28;24439;-70
2022/10/31 01:47:47;;;;;;;5.22;3.17;;;;;;;9.30;100.00;96322.81;5024214;28;20802;-70
2022/10/31 01:50:24;;;;;;;10.10;4.07;;;;;;;9.26;100.00;96326.47;5027175;28;20802;-70
2022/10/31 01:52:52;;;;;;;7.63;3.40;;;;;;;9.15;100.00;96331.31;5024657;28;24434;-70
2022/10/31 01:55:24;;;;;;;5.28;3.00;;;;;;;9.25;100.00;96329.97;5027107;28;20809;-70
2022/10/31 01:57:54;;;;;;;8.48;3.10;;;;;;;9.31;100.00;96327.09;5024664;28;24524;-70
2022/10/31 02:00:23;;;;;;;7.53;3.50;;;;;;;9.39;100.00;96324.97;5027405;28;24454;-70
2022/10/31 02:02:50;;;;;;;4.65;3.05;;;;;;;9.52;100.00;96322.59;5024243;28;24797;-70
2022/10/31 02:05:20;;;;;;;8.97;2.67;;;;;;;9.53;100.00;96324.28;5026685;28;20773;-70
2022/10/31 02:07:55;;;;;;;4.93;2.80;;;;;;;9.31;100.00;96319.34;5024202;28;25023;-70
2022/10/31 02:10:23;;;;;;;8.25;3.03;;;;;;;9.03;100.00;96321.56;5027724;28;24444;-70
2022/10/31 02:12:52;;;;;;;5.80;2.83;;;;;;;8.83;100.00;96328.53;5024861;28;20772;-70
2022/10/31 02:15:19;;;;;;;8.20;3.13;;;;;;;8.93;100.00;96321.16;5027638;28;20795;-70
2022/10/31 02:17:47;;;;;;;4.13;2.60;;;;;;;9.03;100.00;96334.50;5024888;28;20780;-69
2022/10/31 02:20:17;;;;;;;4.97;2.42;;;;;;;9.14;100.00;96333.06;5028279;28;20823;-70
2022/10/31 02:23:12;;;;;;;6.77;3.10;;;;;;;9.23;100.00;96331.78;5025676;28;20718;-69
2022/10/31 02:25:56;;;;;;;6.17;2.70;;;;;;;9.07;100.00;96331.69;5015703;28;20755;-69
2022/10/31 02:28:43;;;;;;;5.82;2.75;;;;;;;8.86;100.00;96325.81;5025730;28;20715;-71
2022/10/31 02:31:26;;;;;;;4.30;2.40;;;;;;;8.89;100.00;96327.38;5023998;28;20655;-70
2022/10/31 02:33:58;;;;;;;5.45;2.47;;;;;;;8.95;100.00;96319.38;5024963;28;20699;-70
2022/10/31 02:36:29;;;;;;;7.80;2.75;;;;;;;9.01;100.00;96320.81;5020146;28;20770;-70
2022/10/31 02:39:03;;;;;;;5.95;2.90;;;;;;;9.02;100.00;96317.34;5028526;28;20701;-70
2022/10/31 02:41:37;;;;;;;6.97;2.80;;;;;;;9.01;100.00;96324.25;5016326;28;20656;-70
2022/10/31 02:44:10;;;;;;;3.65;2.15;;;;;;;9.05;100.00;96328.34;5028538;28;20667;-70
2022/10/31 02:46:44;;;;;;;6.33;2.50;;;;;;;8.99;100.00;96327.81;5025229;28;20876;-70
2022/10/31 02:49:17;;;;;;;4.70;2.35;;;;;;;8.84;100.00;96319.03;5026665;28;20686;-70
2022/10/31 02:51:44;;;;;;;5.68;2.10;;;;;;;8.80;100.00;96325.25;5024055;28;20768;-70
2022/10/31 02:54:20;;;;;;;6.57;2.43;;;;;;;8.83;100.00;96318.19;5026610;28;20772;-70
2022/10/31 02:56:48;;;;;;;5.28;2.38;;;;;;;8.66;100.00;96323.31;5024900;28;20730;-70
2022/10/31 02:59:15;;;;;;;3.93;2.07;;;;;;;8.77;100.00;96315.91;5028337;28;21336;-70
2022/10/31 03:02:09;;;;;;;4.13;2.60;;;;;;;8.61;100.00;96320.13;5024160;28;20820;-69
2022/10/31 03:05:05;;;;;;;5.18;3.13;;;;;;;8.56;100.00;96315.13;5016173;28;20655;-69
2022/10/31 03:07:42;;;;;;;11.80;3.25;;;;;;;8.64;100.00;96313.06;5018193;28;20770;-69
2022/10/31 03:10:17;;;;;;;9.73;3.20;;;;;;;8.60;100.00;96308.09;5026888;28;20742;-70
2022/10/31 03:12:54;;;;;;;7.88;3.25;;;;;;;8.62;100.00;96308.88;5030424;28;20655;-69
2022/10/31 03:15:26;;;;;;;6.20;2.63;;;;;;;8.64;100.00;96307.91;5027202;28;21148;-70
2022/10/31 03:18:01;;;;;;;5.45;2.80;;;;;;;8.66;100.00;96310.41;5031815;28;20693;-69
2022/10/31 03:20:40;;;;;;;7.18;2.60;;;;;;;8.76;100.00;96303.06;5024750;28;20769;-69
2022/10/31 03:23:11;;;;;;;6.05;2.72;;;;;;;8.72;100.00;96303.19;5030649;28;20656;-70
2022/10/31 03:25:40;;;;;;;5.07;2.42;;;;;;;8.67;100.00;96299.16;5027249;28;24438;-70
2022/10/31 03:28:08;;;;;;;3.92;2.40;;;;;;;8.64;100.00;96307.91;5030618;28;21139;-70
2022/10/31 03:30:38;;;;;;;4.88;2.50;;;;;;;8.56;100.00;96306.56;5028154;28;20802;-70
2022/10/31 03:33:11;;;;;;;6.60;3.08;;;;;;;8.55;100.00;96308.31;5030914;28;24427;-70
2022/10/31 03:35:42;;;;;;;6.97;2.60;;;;;;;8.57;100.00;96313.41;5027793;28;24431;-70
2022/10/31 03:38:10;;;;;;;6.32;2.53;;;;;;;8.47;100.00;96313.81;5031074;28;20795;-70
2022/10/31 03:40:40;;;;;;;5.18;2.50;;;;;;;8.46;100.00;96309.56;5028342;28;21420;-70
2022/10/31 03:43:11;;;;;;;5.38;2.63;;;;;;;8.53;100.00;96310.13;5030592;28;24428;-70
2022/10/31 03:45:42;;;;;;;4.57;2.65;;;;;;;8.56;100.00;96303.97;5027508;28;20764;-70
2022/10/31 03:48:10;;;;;;;5.25;2.28;;;;;;;8.59;100.00;96304.66;5025378;28;21357;-70
2022/10/31 03:50:41;;;;;;;3.95;2.28;;;;;;;8.74;100.00;96300.53;5028674;28;24435;-70
2022/10/31 03:53:14;;;;;;;6.63;2.53;;;;;;;8.72;100.00;96304.94;5025735;28;24436;-70
2022/10/31 03:55:46;;;;;;;3.80;2.53;;;;;;;8.73;100.00;96299.72;5027882;28;20773;-69
2022/10/31 03:58:21;;;;;;;3.77;2.23;;;;;;;8.70;100.00;96299.00;5031298;28;24447;-69
2022/10/31 04:00:51;;;;;;;4.22;2.28;;;;;;;8.73;100.00;96307.44;5028798;28;20750;-70
2022/10/31 04:03:24;;;;;;;7.05;2.22;;;;;;;8.57;100.00;96298.75;5023191;28;20785;-70
2022/10/31 04:05:54;;;;;;;4.82;2.53;;;;;;;8.41;100.00;96305.53;5027631;28;21219;-70
2022/10/31 04:08:25;;;;;;;6.30;2.40;;;;;;;8.35;100.00;96295.47;5022750;28;20814;-70
2022/10/31 04:10:54;;;;;;;4.97;2.78;;;;;;;8.42;100.00;96287.41;5028665;28;20814;-69
2022/10/31 04:13:25;;;;;;;5.38;2.38;;;;;;;8.43;100.00;96295.97;5027708;28;21198;-69
2022/10/31 04:15:53;;;;;;;5.43;2.50;;;;;;;8.31;100.00;96288.75;5027941;28;20714;-70
2022/10/31 04:18:21;;;;;;;4.80;2.72;;;;;;;8.26;100.00;96299.28;5025778;28;24794;-70
2022/10/31 04:20:49;;;;;;;5.25;2.38;;;;;;;8.24;100.00;96285.63;5028515;28;24463;-70
2022/10/31 04:23:20;;;;;;;4.47;2.60;;;;;;;8.30;100.00;96287.91;5022863;28;24473;-69
2022/10/31 04:25:47;;;;;;;5.63;2.33;;;;;;;8.40;100.00;96281.44;5025491;28;20821;-69
2022/10/31 04:28:13;;;;;;;4.95;2.70;;;;;;;8.22;100.00;96280.50;5026333;28;24436;-70
2022/10/31 04:30:40;;;;;;;3.70;2.33;;;;;;;8.24;100.00;96285.63;5028998;28;24980;-70
2022/10/31 04:33:06;;;;;;;4.40;2.50;;;;;;;8.32;100.00;96286.09;5021829;28;20779;-69
2022/10/31 04:35:34;;;;;;;5.57;2.63;;;;;;;8.35;100.00;96283.38;5028942;28;20788;-70
2022/10/31 04:38:01;;;;;;;6.37;2.50;;;;;;;8.33;100.00;96276.63;5025612;28;24489;-70
2022/10/31 04:40:27;;;;;;;6.80;3.00;;;;;;;8.44;100.00;96280.41;5023132;28;24452;-70
2022/10/31 04:42:54;;;;;;;4.38;2.50;;;;;;;8.45;100.00;96278.66;5026316;28;24799;-70
2022/10/31 04:45:21;;;;;;;3.47;2.30;;;;;;;8.36;100.00;96271.31;5029408;28;24435;-69
2022/10/31 04:47:47;;;;;;;3.88;2.20;;;;;;;8.28;100.00;96269.09;5030175;28;21317;-69
2022/10/31 04:50:14;;;;;;;4.95;2.55;;;;;;;8.25;100.00;96261.47;5030064;28;24435;-69
2022/10/31 04:52:43;;;;;;;6.93;2.80;;;;;;;8.31;100.00;96266.38;5026937;28;24443;-69
2022/10/31 04:55:10;;;;;;;11.25;2.72;;;;;;;8.40;100.00;96265.13;5024506;28;20757;-70
2022/10/31 04:57:41;;;;;;;5.35;2.58;;;;;;;8.33;100.00;96263.72;5026505;28;21329;-69
2022/10/31 05:00:09;;;;;;;6.33;2.70;;;;;;;8.16;100.00;96255.00;5026734;28;20701;-70
2022/10/31 05:02:35;;;;;;;7.03;2.67;;;;;;;8.17;100.00;96258.41;5029628;28;20813;-70
2022/10/31 05:05:03;;;;;;;6.13;3.10;;;;;;;8.16;100.00;96260.16;5026572;28;24435;-70
2022/10/31 05:07:29;;;;;;;4.63;2.40;;;;;;;8.16;100.00;96257.59;5029839;28;20861;-70
2022/10/31 05:09:57;;;;;;;6.22;3.00;;;;;;;8.12;100.00;96257.78;5027158;28;25190;-70
2022/10/31 05:12:24;;;;;;;6.90;2.40;;;;;;;8.02;100.00;96254.78;5024778;28;20780;-71
2022/10/31 05:14:50;;;;;;;8.35;2.55;;;;;;;8.05;100.00;96264.16;5027299;28;24435;-70
2022/10/31 05:17:17;;;;;;;6.65;2.50;;;;;;;8.01;100.00;96258.28;5020860;28;24435;-70
2022/10/31 05:19:43;;;;;;;6.20;2.88;;;;;;;7.99;100.00;96258.34;5018020;28;24487;-69
2022/10/31 05:22:10;;;;;;;5.90;2.50;;;;;;;7.90;100.00;96255.34;5020322;28;24438;-70
2022/10/31 05:24:36;;;;;;;3.83;2.60;;;;;;;7.95;100.00;96256.81;5019650;28;24867;-70
2022/10/31 05:27:04;;;;;;;4.27;2.50;;;;;;;8.02;100.00;96259.94;5019379;28;20869;-69
2022/10/31 05:29:33;;;;;;;7.53;2.50;;;;;;;7.96;100.00;96257.63;5020712;28;24447;-71
2022/10/31 05:31:59;;;;;;;6.63;2.53;;;;;;;7.84;100.00;96253.84;5011352;28;20771;-71
2022/10/31 05:34:26;;;;;;;8.88;2.70;;;;;;;7.82;100.00;96253.06;5026388;28;20777;-71
2022/10/31 05:36:52;;;;;;;4.45;2.75;;;;;;;7.81;100.00;96250.56;5027880;28;20772;-70
2022/10/31 05:39:19;;;;;;;8.43;2.58;;;;;;;7.88;100.00;96257.97;5019053;28;20784;-70
2022/10/31 05:41:45;;;;;;;7.18;2.67;;;;;;;7.89;100.00;96251.91;5026176;28;21148;-70
2022/10/31 05:44:13;;;;;;;3.17;1.98;;;;;;;7.77;100.00;96255.03;5020090;28;24436;-70
2022/10/31 05:46:40;;;;;;;3.97;2.08;;;;;;;7.76;100.00;96254.19;5017378;28;25009;-70
2022/10/31 05:49:06;;;;;;;8.82;2.38;;;;;;;7.80;100.00;96249.75;5024094;28;20860;-70
2022/10/31 05:51:33;;;;;;;4.03;2.47;;;;;;;7.79;100.00;96249.78;5028692;28;20773;-71
2022/10/31 05:53:59;;;;;;;4.47;2.88;;;;;;;7.79;100.00;96252.38;5026654;28;20791;-71
2022/10/31 05:56:26;;;;;;;3.60;2.25;;;;;;;7.79;100.00;96253.25;5026183;28;20769;-70
2022/10/31 05:58:52;;;;;;;4.00;2.60;;;;;;;7.81;100.00;96245.41;5022657;28;20783;-71
2022/10/31 06:01:20;;;;;;;5.03;2.65;;;;;;;7.77;100.00;96244.72;5013577;28;24452;-70
2022/10/31 06:03:46;;;;;;;4.10;2.72;;;;;;;7.73;100.00;96248.34;5028401;28;20775;-71
2022/10/31 06:06:13;;;;;;;5.03;2.53;;;;;;;7.73;100.00;96241.44;5025417;28;24985;-71
2022/10/31 06:08:39;;;;;;;3.95;2.50;;;;;;;7.72;100.00;96242.34;5026276;28;24439;-71
2022/10/31 06:11:06;;;;;;;4.47;2.28;;;;;;;7.79;100.00;96242.94;5017094;28;20789;-71
2022/10/31 06:13:32;;;;;;;5.95;2.20;;;;;;;7.80;100.00;96241.19;5023713;28;20777;-72
2022/10/31 06:15:59;;;;;;;5.00;2.47;;;;;;;7.84;100.00;96243.53;5025381;28;24434;-71
2022/10/31 06:18:27;;;;;;;3.38;2.30;;;;;;;7.88;100.00;96236.50;5023584;28;24439;-71
2022/10/31 06:20:53;;;;;;;7.38;2.50;;;;;;;7.89;100.00;96235.59;5028117;28;20826;-67
2022/10/31 06:23:20;;;;;;;6.90;2.50;;;;;;;7.95;100.00;96237.91;5028093;28;20780;-71
2022/10/31 06:25:49;;;;;;;6.57;2.60;;;;;;;8.06;100.00;96234.84;5027871;28;20773;-70
2022/10/31 06:28:16;;;;;;;6.17;2.60;;;;;;;7.92;100.00;96233.72;5026183;28;20825;-70
2022/10/31 06:30:43;;;;;;;5.65;2.78;;;;;;;8.00;100.00;96233.38;5023678;28;20802;-70
2022/10/31 06:33:09;;;;;;;5.30;3.13;;;;;;;7.95;100.00;96230.19;5026386;28;24428;-70
2022/10/31 06:35:37;;;;;;;5.53;2.63;;;;;;;7.92;100.00;96230.31;5021825;28;24428;-70
2022/10/31 06:38:04;;;;;;;9.48;3.10;;;;;;;7.80;100.00;96230.88;5030475;28;24436;-70
2022/10/31 06:40:30;;;;;;;5.05;2.88;;;;;;;7.75;100.00;96231.06;5028044;28;25113;-70
2022/10/31 06:42:58;;;;;;;6.07;2.70;;;;;;;7.76;100.00;96227.59;5030812;28;24435;-70
2022/10/31 06:45:24;;;;;;;6.13;3.08;;;;;;;7.82;100.00;96232.44;5027803;28;24444;-70
2022/10/31 06:47:52;;;;;;;5.53;2.75;;;;;;;7.89;100.00;96235.59;5030899;28;24434;-71
2022/10/31 06:50:18;;;;;;;7.53;2.90;;;;;;;7.97;100.00;96234.38;5029356;28;24428;-70
2022/10/31 06:52:52;;;;;;;7.00;2.80;;;;;;;8.07;100.00;96234.78;5029640;28;24428;-70
2022/10/31 06:55:20;;;;;;;6.45;2.70;;;;;;;8.15;100.00;96242.16;5028419;28;25033;-70
2022/10/31 06:57:50;;;;;;;9.00;2.90;;;;;;;8.21;100.00;96231.56;5026235;28;20810;-70
2022/10/31 07:00:17;;;;;;;6.63;2.90;;;;;;;8.25;100.00;96243.41;5029492;28;24448;-70
2022/10/31 07:02:43;;;;;;;5.65;2.50;;;;;;;8.33;100.00;96237.91;5030123;28;24427;-70
2022/10/31 07:05:10;;;;;;;4.70;2.90;;;;;;;8.34;100.00;96240.41;5029304;28;24450;-70
2022/10/31 07:07:36;;;;;;;5.40;2.40;;;;;;;8.40;100.00;96247.06;5029999;28;24454;-70
2022/10/31 07:10:05;;;;;;;5.00;2.67;;;;;;;8.44;100.00;96251.19;5031057;28;24436;-70
2022/10/31 07:12:31;;;;;;;6.43;2.55;;;;;;;8.55;100.00;96243.75;5029044;28;24435;-70
2022/10/31 07:14:58;;;;;;;5.93;3.00;;;;;;;8.64;100.00;96248.50;5031207;28;25000;-70
2022/10/31 07:17:25;;;;;;;7.33;2.90;;;;;;;8.71;100.00;96241.28;5027963;28;24439;-70
2022/10/31 07:19:51;;;;;;;5.35;2.80;;;;;;;8.73;100.00;96242.06;5031653;28;24432;-70
2022/10/31 07:22:18;;;;;;;22.95;3.15;;;;;;;8.82;100.00;96251.94;5027533;28;24461;-70
2022/10/31 07:24:44;;;;;;;6.28;3.08;;;;;;;8.93;100.00;96254.00;5025954;28;24428;-70
2022/10/31 07:27:12;;;;;;;4.47;3.00;;;;;;;9.05;100.00;96252.56;5027137;28;25020;-70
2022/10/31 07:29:38;;;;;;;4.50;2.67;;;;;;;9.16;100.00;96250.31;5031751;28;20817;-70
2022/10/31 07:32:05;;;;;;;4.95;2.60;;;;;;;9.35;100.00;96255.41;5028034;28;24423;-70
2022/10/31 07:34:31;;;;;;;7.53;2.92;;;;;;;9.50;100.00;96248.63;5031501;28;24439;-70
2022/10/31 07:36:58;;;;;;;5.50;3.28;;;;;;;9.53;100.00;96254.47;5027883;28;24435;-70
2022/10/31 07:39:24;;;;;;;6.80;3.40;;;;;;;9.66;100.00;96250.31;5031506;28;24494;-70
2022/10/31 07:41:51;;;;;;;7.50;4.53;;;;;;;9.75;100.00;96251.59;5028317;28;24456;-70
2022/10/31 07:44:19;;;;;;;7.05;4.25;;;;;;;9.82;100.00;96252.94;5030828;28;24442;-70
2022/10/31 07:46:45;;;;;;;8.82;4.18;;;;;;;9.87;100.00;96247.56;5027991;28;20772;-70
2022/10/31 07:49:12;;;;;;;6.95;4.07;;;;;;;9.91;100.00;96251.66;5025773;28;24432;-70
2022/10/31 07:51:38;;;;;;;7.72;3.85;;;;;;;9.87;100.00;96253.56;5028790;28;24431;-70
2022/10/31 07:54:05;;;;;;;5.82;3.58;;;;;;;9.86;100.00;96254.50;5025852;28;24812;-70
2022/10/31 07:56:31;;;;;;;6.32;3.55;;;;;;;9.87;100.00;96252.72;5028118;28;24458;-70
2022/10/31 07:58:58;;;;;;;4.55;3.00;;;;;;;9.95;100.00;96258.34;5022786;28;25013;-70
2022/10/31 08:01:26;;;;;;;6.20;3.10;;;;;;;10.06;100.00;96247.44;5028444;28;24455;-70
2022/10/31 08:03:52;;;;;;;8.73;3.72;;;;;;;10.11;100.00;96243.66;5026435;28;20815;-70
2022/10/31 08:06:19;;;;;;;11.52;3.53;;;;;;;10.22;100.00;96245.69;5028554;28;24435;-70
2022/10/31 08:08:45;;;;;;;6.75;3.47;;;;;;;10.27;100.00;96240.28;5026698;28;21348;-70
2022/10/31 08:11:12;;;;;;;8.38;3.63;;;;;;;10.28;100.00;96242.81;5029029;28;24428;-70
2022/10/31 08:13:38;;;;;;;6.47;3.20;;;;;;;10.36;100.00;96245.81;5026379;28;25046;-70
2022/10/31 08:16:07;;;;;;;7.32;3.72;;;;;;;10.43;100.00;96245.47;5028367;28;24439;-70
2022/10/31 08:18:37;;;;;;;9.23;3.83;;;;;;;10.53;100.00;96239.72;5026874;28;21351;-70
2022/10/31 08:21:03;;;;;;;9.70;4.07;;;;;;;10.63;100.00;96235.69;5029757;28;21136;-70
2022/10/31 08:23:30;;;;;;;7.47;3.50;;;;;;;10.72;100.00;96238.69;5026268;28;21358;-70
2022/10/31 08:25:58;;;;;;;5.90;3.53;;;;;;;10.76;100.00;96233.25;5025403;28;24439;-70
2022/10/31 08:28:24;;;;;;;6.63;3.58;;;;;;;10.94;100.00;96240.88;5026578;28;21354;-70
2022/10/31 08:30:51;;;;;;;5.68;3.20;;;;;;;11.09;100.00;96230.50;5029300;28;24435;-71
2022/10/31 08:33:19;;;;;;;7.85;3.60;;;;;;;11.28;100.00;96230.28;5027768;28;24440;-70
2022/10/31 08:35:47;;;;;;;6.47;3.38;;;;;;;11.62;100.00;96223.94;5024542;28;24450;-71
2022/10/31 08:38:14;;;;;;;8.05;4.20;;;;;;;11.76;100.00;96223.09;5027955;28;21344;-70
2022/10/31 08:40:40;;;;;;;6.88;3.92;;;;;;;11.69;100.00;96219.22;5029655;28;24481;-70
2022/10/31 08:43:12;;;;;;;9.05;3.95;;;;;;;11.79;100.00;96219.47;5028359;28;24478;-69
2022/10/31 08:45:39;;;;;;;7.38;3.80;;;;;;;11.86;100.00;96220.81;5021140;28;24428;-69
2022/10/31 08:48:07;;;;;;;6.18;3.15;;;;;;;12.01;100.00;96208.66;5029192;28;24436;-70
2022/10/31 08:50:36;;;;;;;5.88;3.20;;;;;;;11.83;100.00;96216.66;5015732;28;25020;-69
2022/10/31 08:53:06;;;;;;;8.73;3.75;;;;;;;11.81;100.00;96208.09;5029337;28;20799;-69
2022/10/31 08:55:34;;;;;;;7.32;3.33;;;;;;;11.79;100.00;96209.94;5027479;28;24428;-69
2022/10/31 08:58:00;;;;;;;10.05;3.80;;;;;;;11.81;100.00;96215.88;5029749;28;24420;-69
2022/10/31 09:00:27;;;;;;;8.15;3.08;;;;;;;11.88;100.00;96207.75;5019825;28;24442;-70
2022/10/31 09:02:57;;;;;;;9.07;4.22;;;;;;;11.97;100.00;96202.81;5029733;28;25047;-70
2022/10/31 09:05:25;;;;;;;8.43;4.07;;;;;;;11.93;100.00;96200.50;5027058;28;24490;-69
2022/10/31 09:07:51;;;;;;;6.30;3.88;;;;;;;11.93;100.00;96201.34;5027581;28;24428;-69
2022/10/31 09:10:19;;;;;;;8.80;4.20;;;;;;;12.03;100.00;96196.44;5018696;28;25000;-69
2022/10/31 09:12:45;;;;;;;7.53;4.30;;;;;;;12.39;100.00;96197.66;5018684;28;24440;-69
2022/10/31 09:15:12;;;;;;;12.77;3.80;;;;;;;12.49;100.00;96199.56;5018352;28;24467;-69
2022/10/31 09:17:38;;;;;;;8.90;3.80;;;;;;;12.59;100.00;96203.25;5021718;28;24435;-70
2022/10/31 09:20:06;;;;;;;8.88;3.50;;;;;;;12.42;100.00;96195.72;5020650;28;24440;-69
2022/10/31 09:22:32;;;;;;;5.75;3.33;;;;;;;12.52;100.00;96194.16;5023001;28;24452;-69
2022/10/31 09:24:59;;;;;;;7.45;3.83;;;;;;;12.53;100.00;96193.25;5021409;28;24441;-70
2022/10/31 09:27:26;;;;;;;8.13;3.78;;;;;;;12.75;100.00;96194.47;5020389;28;24432;-69
2022/10/31 09:29:53;;;;;;;8.18;3.70;;;;;;;12.77;100.00;96195.22;5023024;28;24444;-69
2022/10/31 09:32:19;;;;;;;8.03;3.80;;;;;;;12.71;100.00;96193.81;5026599;28;24463;-69
2022/10/31 09:34:46;;;;;;;7.43;3.55;;;;;;;12.77;100.00;96190.00;5022796;28;24451;-69
2022/10/31 09:37:12;;;;;;;9.20;3.83;;;;;;;12.84;100.00;96191.28;5027968;28;24439;-70
2022/10/31 09:39:39;;;;;;;8.13;4.10;;;;;;;12.86;100.00;96186.78;5023677;28;24777;-69
2022/10/31 09:42:32;;;;;;;9.88;5.30;;;;;;;13.05;100.00;96184.69;5027474;28;24463;-69
2022/10/31 09:45:07;;;;;;;7.65;4.05;;;;;;;13.32;100.00;96189.00;5015111;28;24444;-71
2022/10/31 09:47:48;;;;;;;11.63;3.70;;;;;;;13.53;100.00;96186.72;5024363;28;24526;-69
2022/10/31 09:50:21;;;;;;;5.68;3.75;;;;;;;13.73;100.00;96186.19;5019261;28;24968;-69
2022/10/31 09:52:58;;;;;;;11.00;4.85;;;;;;;14.04;100.00;96181.47;5029604;28;24434;-69
2022/10/31 09:55:31;;;;;;;8.38;4.78;;;;;;;14.20;100.00;96181.22;5020737;28;24961;-70
2022/10/31 09:58:00;;;;;;;9.10;5.03;;;;;;;14.34;100.00;96180.25;5018052;28;24424;-69
2022/10/31 10:00:28;;;;;;;12.70;6.15;;;;;;;14.48;100.00;96180.09;5022217;28;24985;-71
2022/10/31 10:03:03;;;;;;;12.02;5.05;;;;;;;14.57;100.00;96176.00;5017411;28;25072;-69
2022/10/31 10:05:37;;;;;;;8.73;4.73;;;;;;;14.66;100.00;96172.75;5021959;28;24443;-69
2022/10/31 10:08:11;;;;;;;8.95;4.88;;;;;;;14.67;100.00;96177.00;5020030;28;24439;-69
2022/10/31 10:10:49;;;;;;;9.63;5.18;;;;;;;14.80;100.00;96175.19;5027610;28;24431;-69
2022/10/31 10:13:31;;;;;;;9.68;4.75;;;;;;;14.93;100.00;96170.72;5029205;28;24451;-70
2022/10/31 10:16:14;;;;;;;7.78;4.20;;;;;;;15.13;100.00;96165.78;5032429;28;24427;-69
2022/10/31 10:18:51;;;;;;;10.07;4.15;;;;;;;15.08;100.00;96165.31;5026357;28;24447;-69
2022/10/31 10:21:34;;;;;;;8.98;3.95;;;;;;;15.13;100.00;96156.22;5024475;28;24470;-70
2022/10/31 10:24:15;;;;;;;8.82;3.83;;;;;;;15.17;100.00;96160.25;5029943;28;24428;-69
2022/10/31 10:26:44;;;;;;;10.13;4.35;;;;;;;15.18;100.00;96158.47;5024497;28;24778;-71
2022/10/31 10:29:28;;;;;;;11.40;4.22;;;;;;;15.22;100.00;96150.28;5031226;28;24794;-70
2022/10/31 10:32:01;;;;;;;8.10;4.05;;;;;;;15.18;100.00;96154.09;5026487;28;24435;-70
2022/10/31 10:34:31;;;;;;;8.68;5.05;;;;;;;15.15;100.00;96148.25;5028564;28;24440;-70
2022/10/31 10:37:03;;;;;;;6.80;4.30;;;;;;;15.11;100.00;96152.06;5020836;28;24428;-70
2022/10/31 10:39:36;;;;;;;10.60;5.70;;;;;;;15.13;100.00;96144.91;5021548;28;24440;-70
2022/10/31 10:47:43;;;;;;;8.40;4.20;;;;;;;15.52;100.00;96127.22;5027151;28;24513;-69
2022/10/31 10:50:16;;;;;;;10.40;4.38;;;;;;;15.85;100.00;96129.84;5022534;28;24440;-70
2022/10/31 10:52:53;;;;;;;7.03;4.10;;;;;;;16.14;100.00;96122.34;5018559;28;24436;-69
2022/10/31 10:55:29;;;;;;;8.57;3.47;;;;;;;16.40;100.00;96116.81;5023659;28;24439;-69
2022/10/31 10:57:59;;;;;;;9.88;3.35;;;;;;;16.50;100.00;96114.25;5020982;28;24789;-72
2022/10/31 11:00:28;;;;;;;6.55;3.50;;;;;;;16.85;100.00;96109.63;5020687;28;24430;-69
2022/10/31 11:02:56;;;;;;;9.25;3.47;;;;;;;16.74;100.00;96111.47;5028454;28;24455;-69
2022/10/31 11:05:26;;;;;;;7.78;3.55;;;;;;;16.58;100.00;96114.50;5023659;28;24999;-69
2022/10/31 11:07:53;;;;;;;7.32;3.75;;;;;;;16.41;100.00;96114.06;5030897;28;24521;-70
2022/10/31 11:10:19;;;;;;;12.53;4.13;;;;;;;16.08;100.00;96116.75;5028015;28;24455;-69
2022/10/31 11:13:00;;;;;;;13.93;5.22;;;;;;;15.83;100.00;96112.63;5031277;28;24428;-69
2022/10/31 11:15:28;;;;;;;12.50;4.40;;;;;;;15.71;100.00;96103.97;5029548;28;24810;-70
2022/10/31 11:17:58;;;;;;;15.32;4.38;;;;;;;15.61;100.00;96101.22;5023293;28;24429;-70
2022/10/31 11:20:31;;;;;;;8.25;3.63;;;;;;;15.61;100.00;96097.75;5020518;28;24429;-68
2022/10/31 11:23:19;;;;;;;9.18;4.85;;;;;;;15.69;100.00;96096.28;5022010;28;25086;-70
2022/10/31 11:25:51;;;;;;;7.75;4.40;;;;;;;15.77;100.00;96093.06;5029069;28;24439;-70
2022/10/31 11:28:17;;;;;;;7.55;4.00;;;;;;;15.85;100.00;96095.06;5026937;28;24592;-69
2022/10/31 11:30:47;;;;;;;8.88;4.32;;;;;;;15.90;100.00;96093.72;5029373;28;24996;-69
2022/10/31 11:33:20;;;;;;;9.75;4.35;;;;;;;15.95;100.00;96088.16;5031345;28;24463;-70
2022/10/31 11:35:47;;;;;;;9.73;4.10;;;;;;;15.99;100.00;96093.97;5029044;28;24447;-69
2022/10/31 11:38:19;;;;;;;10.90;4.15;;;;;;;16.00;100.00;96090.41;5022045;28;24436;-70
2022/10/31 11:40:54;;;;;;;8.15;4.22;;;;;;;15.91;100.00;96082.38;5030191;28;24432;-69
2022/10/31 11:43:21;;;;;;;6.38;3.88;;;;;;;15.95;100.00;96080.34;5018960;28;24489;-71
2022/10/31 11:45:48;;;;;;;9.93;4.27;;;;;;;15.99;100.00;96079.13;5028914;28;24432;-71